Time;durP1;ratioP1;P1;durP2;ratioP2;P2;SDS_P1;SDS_P2;PMS_P1;PMS_P2;Temp;Humidity;BMP_temperature;BMP_pressure;BME280_temperature;BME280_humidity;BME280_pressure;Samples;Min_cycle;Max_cycle;Signal;HPM_P1;HPM_P2
2022/02/07 00:00:40;;;;;;;;;;;22.40;28.70;;;;;;482022;247;1859;-58
2022/02/07 00:03:02;;;;;;;;;;;22.40;28.70;;;;;;482002;246;1349;-59
2022/02/07 00:04:45;;;;;;;;;;;22.40;28.70;;;;;;480896;247;1557;-59
2022/02/07 00:06:44;;;;;;;;;;;22.40;28.60;;;;;;482038;247;2186;-59
2022/02/07 00:08:46;;;;;;;;;;;22.40;28.60;;;;;;482213;247;2210;-59
2022/02/07 00:10:46;;;;;;;;;;;22.30;28.60;;;;;;482201;247;2184;-59
2022/02/07 00:12:47;;;;;;;;;;;22.30;28.60;;;;;;482259;246;1049;-59
2022/02/07 00:14:49;;;;;;;;;;;22.30;28.60;;;;;;482275;246;1164;-58
2022/02/07 00:16:50;;;;;;;;;;;22.30;28.60;;;;;;482321;246;1347;-59
2022/02/07 00:18:51;;;;;;;;;;;22.30;28.70;;;;;;482293;246;966;-59
2022/02/07 00:20:53;;;;;;;;;;;22.30;28.70;;;;;;482287;246;1217;-59
2022/02/07 00:22:54;;;;;;;;;;;22.30;28.70;;;;;;482252;246;1120;-59
2022/02/07 00:24:56;;;;;;;;;;;22.30;28.70;;;;;;482333;246;1107;-59
2022/02/07 00:26:57;;;;;;;;;;;22.30;28.60;;;;;;482260;246;1328;-59
2022/02/07 00:28:58;;;;;;;;;;;22.20;28.60;;;;;;482317;246;1133;-58
2022/02/07 00:30:59;;;;;;;;;;;22.30;28.60;;;;;;482327;246;2110;-59
2022/02/07 00:33:01;;;;;;;;;;;22.20;28.60;;;;;;482276;246;972;-58
2022/02/07 00:35:02;;;;;;;;;;;22.30;28.60;;;;;;482293;246;1044;-59
2022/02/07 00:37:03;;;;;;;;;;;22.20;28.60;;;;;;482312;246;1303;-59
2022/02/07 00:39:10;;;;;;;;;;;22.20;28.60;;;;;;482404;246;1133;-59
2022/02/07 00:41:17;;;;;;;;;;;22.20;28.60;;;;;;482016;247;2207;-58
2022/02/07 00:43:30;;;;;;;;;;;22.20;28.60;;;;;;482006;247;2116;-59
2022/02/07 00:45:40;;;;;;;;;;;22.10;28.60;;;;;;482081;247;2341;-59
2022/02/07 00:47:29;;;;;;;;;;;22.20;28.60;;;;;;481397;247;2151;-59
2022/02/07 00:49:30;;;;;;;;;;;22.10;28.70;;;;;;482324;246;1145;-59
2022/02/07 00:51:32;;;;;;;;;;;22.20;28.70;;;;;;482204;238;2136;-59
2022/02/07 00:53:33;;;;;;;;;;;22.10;28.70;;;;;;482338;246;1031;-59
2022/02/07 00:55:34;;;;;;;;;;;22.10;28.70;;;;;;482276;246;1112;-59
2022/02/07 00:57:36;;;;;;;;;;;22.00;28.70;;;;;;482255;246;1170;-59
2022/02/07 00:59:37;;;;;;;;;;;22.10;28.70;;;;;;482267;246;1197;-59
2022/02/07 01:01:38;;;;;;;;;;;22.10;28.70;;;;;;482269;246;1254;-59
2022/02/07 01:03:40;;;;;;;;;;;22.10;28.80;;;;;;482299;246;1223;-59
2022/02/07 01:05:41;;;;;;;;;;;22.10;28.80;;;;;;482401;246;1214;-59
2022/02/07 01:07:46;;;;;;;;;;;22.10;28.80;;;;;;482275;246;1244;-59
2022/02/07 01:09:50;;;;;;;;;;;22.00;28.80;;;;;;482092;247;1910;-59
2022/02/07 01:11:57;;;;;;;;;;;22.10;28.80;;;;;;481884;247;2261;-58
2022/02/07 01:14:09;;;;;;;;;;;22.10;28.70;;;;;;481729;247;2166;-59
2022/02/07 01:16:11;;;;;;;;;;;22.10;28.80;;;;;;481673;247;1396;-58
2022/02/07 01:23:24;;;;;;;;;;;22.10;28.80;;;;;;482336;247;1273;-59
2022/02/07 01:46:57;;;;;;;;;;;21.90;28.80;;;;;;482240;247;1132;-59
2022/02/07 01:51:13;;;;;;;;;;;22.00;28.70;;;;;;467302;247;2177;-59
2022/02/07 01:53:18;;;;;;;;;;;21.90;28.80;;;;;;481828;247;1444;-58
2022/02/07 01:55:18;;;;;;;;;;;21.90;28.80;;;;;;481780;247;2124;-59
2022/02/07 01:57:13;;;;;;;;;;;21.80;28.80;;;;;;481861;247;1291;-59
2022/02/07 01:59:15;;;;;;;;;;;21.80;28.80;;;;;;482278;246;959;-59
2022/02/07 02:01:16;;;;;;;;;;;21.80;28.90;;;;;;482195;246;1229;-59
2022/02/07 02:03:17;;;;;;;;;;;21.80;28.90;;;;;;482243;246;1092;-58
2022/02/07 02:05:19;;;;;;;;;;;21.80;28.80;;;;;;482277;246;945;-59
2022/02/07 02:07:20;;;;;;;;;;;21.90;28.80;;;;;;482270;246;1184;-58
2022/02/07 02:09:22;;;;;;;;;;;21.90;28.80;;;;;;482337;246;1069;-59
2022/02/07 02:11:23;;;;;;;;;;;21.90;28.80;;;;;;482327;246;2185;-59
2022/02/07 02:13:28;;;;;;;;;;;21.80;28.90;;;;;;482288;246;1076;-59
2022/02/07 02:15:36;;;;;;;;;;;21.80;28.90;;;;;;482064;247;2067;-58
2022/02/07 02:18:04;;;;;;;;;;;21.80;28.90;;;;;;481798;247;1519;-59
2022/02/07 02:36:31;;;;;;;;;;;21.80;28.90;;;;;;482255;246;1136;-59
2022/02/07 02:38:43;;;;;;;;;;;21.70;28.90;;;;;;481958;247;2231;-59
2022/02/07 02:47:29;;;;;;;;;;;21.80;28.90;;;;;;482163;247;1133;-58
2022/02/07 02:49:33;;;;;;;;;;;21.80;28.80;;;;;;482154;247;1847;-59
2022/02/07 02:51:30;;;;;;;;;;;21.80;28.80;;;;;;481949;247;2184;-59
2022/02/07 02:53:32;;;;;;;;;;;21.80;28.80;;;;;;482281;246;1056;-59
2022/02/07 02:55:33;;;;;;;;;;;21.70;28.90;;;;;;482251;246;1134;-59
2022/02/07 02:57:35;;;;;;;;;;;21.70;28.90;;;;;;482195;246;1118;-58
2022/02/07 02:59:36;;;;;;;;;;;21.70;28.90;;;;;;482282;246;1242;-59
2022/02/07 03:01:37;;;;;;;;;;;21.70;28.90;;;;;;482150;246;1308;-59
2022/02/07 03:03:39;;;;;;;;;;;21.70;28.80;;;;;;482245;246;1169;-59
2022/02/07 03:05:43;;;;;;;;;;;21.70;28.90;;;;;;482249;246;968;-59
2022/02/07 03:07:41;;;;;;;;;;;21.70;28.90;;;;;;482041;247;1450;-59
2022/02/07 03:09:48;;;;;;;;;;;21.70;28.90;;;;;;482306;246;1124;-59
2022/02/07 03:11:47;;;;;;;;;;;21.80;28.90;;;;;;481947;247;2201;-59
2022/02/07 03:13:53;;;;;;;;;;;21.70;28.80;;;;;;482351;246;1117;-59
2022/02/07 03:18:10;;;;;;;;;;;21.80;28.80;;;;;;482230;247;1159;-59
2022/02/07 03:20:11;;;;;;;;;;;21.70;28.80;;;;;;482324;246;940;-59
2022/02/07 03:22:12;;;;;;;;;;;21.70;28.90;;;;;;482157;246;1182;-58
2022/02/07 03:24:14;;;;;;;;;;;21.70;28.80;;;;;;482254;246;1107;-59
2022/02/07 03:26:17;;;;;;;;;;;21.70;28.80;;;;;;482218;247;1367;-59
2022/02/07 03:28:16;;;;;;;;;;;21.70;28.90;;;;;;482166;247;1390;-58
2022/02/07 03:30:18;;;;;;;;;;;21.60;28.80;;;;;;482294;246;1308;-59
2022/02/07 03:32:19;;;;;;;;;;;21.60;28.80;;;;;;482294;246;2129;-59
2022/02/07 03:34:20;;;;;;;;;;;21.70;28.80;;;;;;482295;246;967;-59
2022/02/07 03:36:21;;;;;;;;;;;21.70;28.80;;;;;;482166;244;1232;-59
2022/02/07 03:38:23;;;;;;;;;;;21.70;28.70;;;;;;482320;246;967;-59
2022/02/07 03:40:24;;;;;;;;;;;21.80;28.70;;;;;;482306;246;1227;-59
2022/02/07 03:42:25;;;;;;;;;;;21.70;28.70;;;;;;482225;246;1233;-59
2022/02/07 03:44:27;;;;;;;;;;;21.70;28.80;;;;;;482283;246;1224;-58
2022/02/07 03:46:28;;;;;;;;;;;21.70;28.80;;;;;;482157;246;1564;-59
2022/02/07 03:48:29;;;;;;;;;;;21.70;28.70;;;;;;482220;246;1061;-59
2022/02/07 03:50:31;;;;;;;;;;;21.70;28.80;;;;;;482261;246;984;-58
2022/02/07 03:52:32;;;;;;;;;;;21.60;28.90;;;;;;482228;246;2125;-59
2022/02/07 03:54:33;;;;;;;;;;;21.70;28.80;;;;;;482275;246;975;-61
2022/02/07 03:56:35;;;;;;;;;;;21.70;28.80;;;;;;482235;246;1206;-59
2022/02/07 03:58:36;;;;;;;;;;;21.70;28.80;;;;;;482305;246;1056;-59
2022/02/07 04:00:39;;;;;;;;;;;21.70;28.70;;;;;;482225;246;1152;-58
2022/02/07 04:02:43;;;;;;;;;;;21.70;28.70;;;;;;482157;246;2461;-58
2022/02/07 04:04:42;;;;;;;;;;;21.70;28.60;;;;;;482033;247;1340;-59
2022/02/07 04:06:42;;;;;;;;;;;21.70;28.60;;;;;;481970;247;1517;-59
2022/02/07 04:08:46;;;;;;;;;;;21.70;28.70;;;;;;482135;246;1599;-59
2022/02/07 04:10:56;;;;;;;;;;;21.70;28.70;;;;;;482031;247;1666;-58
2022/02/07 04:12:56;;;;;;;;;;;21.70;28.70;;;;;;481869;247;2557;-58
2022/02/07 04:14:52;;;;;;;;;;;21.70;28.70;;;;;;481917;247;2439;-59
2022/02/07 04:16:54;;;;;;;;;;;21.60;28.70;;;;;;482195;246;1305;-58
2022/02/07 04:19:02;;;;;;;;;;;21.60;28.80;;;;;;482266;246;1136;-58
2022/02/07 04:20:59;;;;;;;;;;;21.60;28.80;;;;;;482039;247;2084;-59
2022/02/07 04:23:00;;;;;;;;;;;21.60;28.80;;;;;;482201;246;1397;-59
2022/02/07 04:25:01;;;;;;;;;;;21.60;28.70;;;;;;482300;246;958;-59
2022/02/07 04:27:03;;;;;;;;;;;21.70;28.60;;;;;;482191;246;1251;-59
2022/02/07 04:29:04;;;;;;;;;;;21.70;28.60;;;;;;482225;246;968;-58
2022/02/07 04:31:05;;;;;;;;;;;21.70;28.70;;;;;;482142;246;1216;-59
2022/02/07 04:33:07;;;;;;;;;;;21.70;28.60;;;;;;482266;246;2130;-59
2022/02/07 04:35:08;;;;;;;;;;;21.70;28.70;;;;;;482272;246;966;-58
2022/02/07 04:37:09;;;;;;;;;;;21.70;28.60;;;;;;482255;246;1168;-60
2022/02/07 04:39:11;;;;;;;;;;;21.70;28.60;;;;;;482241;246;1099;-58
2022/02/07 04:41:12;;;;;;;;;;;21.60;28.70;;;;;;482191;246;2165;-59
2022/02/07 04:43:16;;;;;;;;;;;21.70;28.60;;;;;;482163;246;1112;-59
2022/02/07 04:45:31;;;;;;;;;;;21.70;28.60;;;;;;482081;247;1768;-58
2022/02/07 04:47:42;;;;;;;;;;;21.60;28.60;;;;;;481649;247;1493;-59
2022/02/07 04:50:01;;;;;;;;;;;21.60;28.70;;;;;;481605;247;1403;-58
2022/02/07 04:51:54;;;;;;;;;;;21.60;28.70;;;;;;481172;247;2193;-59
2022/02/07 04:54:07;;;;;;;;;;;21.60;28.70;;;;;;481921;247;1499;-59
2022/02/07 04:56:15;;;;;;;;;;;21.60;28.60;;;;;;481288;247;2397;-58
2022/02/07 04:58:07;;;;;;;;;;;21.60;28.70;;;;;;481303;247;2022;-59
2022/02/07 05:00:10;;;;;;;;;;;21.60;28.60;;;;;;481966;247;1464;-58
2022/02/07 05:02:11;;;;;;;;;;;21.60;28.60;;;;;;481735;247;2219;-59
2022/02/07 05:04:19;;;;;;;;;;;21.60;28.60;;;;;;481897;247;1626;-58
2022/02/07 05:15:25;;;;;;;;;;;21.60;28.60;;;;;;482173;243;1200;-59
2022/02/07 05:17:27;;;;;;;;;;;21.60;28.50;;;;;;482054;246;1137;-59
2022/02/07 05:19:28;;;;;;;;;;;21.50;28.60;;;;;;482011;247;2065;-59
2022/02/07 05:21:29;;;;;;;;;;;21.60;28.60;;;;;;482126;246;1218;-59
2022/02/07 05:23:31;;;;;;;;;;;21.60;28.60;;;;;;482184;246;966;-59
2022/02/07 05:25:32;;;;;;;;;;;21.60;28.60;;;;;;482231;243;1339;-59
2022/02/07 05:27:33;;;;;;;;;;;21.60;28.50;;;;;;482184;246;1334;-59
2022/02/07 05:29:34;;;;;;;;;;;21.60;28.60;;;;;;482219;246;955;-59
2022/02/07 05:31:36;;;;;;;;;;;21.60;28.50;;;;;;482079;246;1217;-59
2022/02/07 05:33:39;;;;;;;;;;;21.50;28.50;;;;;;482012;246;2121;-59
2022/02/07 05:35:39;;;;;;;;;;;21.60;28.60;;;;;;482000;246;1944;-58
2022/02/07 05:37:40;;;;;;;;;;;21.50;28.50;;;;;;482170;246;1115;-59
2022/02/07 05:39:43;;;;;;;;;;;21.60;28.50;;;;;;482159;246;1100;-60
2022/02/07 05:41:43;;;;;;;;;;;21.60;28.50;;;;;;481956;246;2052;-59
2022/02/07 05:43:46;;;;;;;;;;;21.60;28.40;;;;;;482026;246;1049;-58
2022/02/07 05:45:46;;;;;;;;;;;21.60;28.40;;;;;;481842;246;2304;-59
2022/02/07 05:47:47;;;;;;;;;;;21.60;28.40;;;;;;481971;246;1230;-59
2022/02/07 05:49:48;;;;;;;;;;;21.60;28.40;;;;;;482088;246;1072;-59
2022/02/07 05:51:50;;;;;;;;;;;21.60;28.40;;;;;;482010;246;2180;-59
2022/02/07 05:53:51;;;;;;;;;;;21.60;28.40;;;;;;481955;246;1105;-60
2022/02/07 05:55:52;;;;;;;;;;;21.50;28.40;;;;;;481941;246;1182;-59
2022/02/07 05:57:54;;;;;;;;;;;21.50;28.40;;;;;;481963;246;1140;-59
2022/02/07 05:59:55;;;;;;;;;;;21.50;28.40;;;;;;481996;246;1072;-58
2022/02/07 06:01:56;;;;;;;;;;;21.60;28.40;;;;;;482010;246;1246;-59
2022/02/07 06:03:58;;;;;;;;;;;21.60;28.40;;;;;;482068;246;1064;-59
2022/02/07 06:05:59;;;;;;;;;;;21.60;28.30;;;;;;482031;246;1350;-59
2022/02/07 06:08:00;;;;;;;;;;;21.60;28.30;;;;;;482024;246;1151;-59
2022/02/07 06:10:02;;;;;;;;;;;21.60;28.30;;;;;;482021;246;1315;-60
2022/02/07 06:12:03;;;;;;;;;;;21.60;28.30;;;;;;481961;246;2200;-59
2022/02/07 06:14:04;;;;;;;;;;;21.60;28.30;;;;;;481992;246;1892;-59
2022/02/07 06:16:06;;;;;;;;;;;21.50;28.20;;;;;;481934;246;1249;-59
2022/02/07 06:18:07;;;;;;;;;;;21.50;28.20;;;;;;481998;246;1206;-59
2022/02/07 06:20:08;;;;;;;;;;;21.50;28.20;;;;;;482024;246;1033;-59
2022/02/07 06:22:10;;;;;;;;;;;21.50;28.20;;;;;;481910;246;1109;-59
2022/02/07 06:24:11;;;;;;;;;;;21.50;28.30;;;;;;481945;246;1032;-59
2022/02/07 06:26:12;;;;;;;;;;;21.50;28.20;;;;;;481851;246;1339;-59
2022/02/07 06:28:13;;;;;;;;;;;21.60;28.20;;;;;;481923;246;1067;-59
2022/02/07 06:30:15;;;;;;;;;;;21.50;28.10;;;;;;481832;246;1019;-59
2022/02/07 06:32:16;;;;;;;;;;;21.60;28.10;;;;;;481843;246;2213;-59
2022/02/07 06:34:17;;;;;;;;;;;21.60;28.10;;;;;;481920;246;1074;-59
2022/02/07 06:36:20;;;;;;;;;;;21.60;28.10;;;;;;481854;246;1225;-59
2022/02/07 06:38:20;;;;;;;;;;;21.60;28.00;;;;;;481824;246;2276;-59
2022/02/07 06:40:22;;;;;;;;;;;21.50;28.00;;;;;;481804;246;1115;-59
2022/02/07 06:42:23;;;;;;;;;;;21.50;28.00;;;;;;481923;246;1284;-60
2022/02/07 06:44:24;;;;;;;;;;;21.50;28.00;;;;;;481927;246;1087;-59
2022/02/07 06:46:25;;;;;;;;;;;21.50;28.10;;;;;;481721;246;1110;-61
2022/02/07 06:48:27;;;;;;;;;;;21.50;28.00;;;;;;481833;246;1325;-59
2022/02/07 06:50:28;;;;;;;;;;;21.50;28.10;;;;;;481841;246;1005;-58
2022/02/07 06:52:29;;;;;;;;;;;21.50;28.00;;;;;;481806;246;2129;-59
2022/02/07 06:54:31;;;;;;;;;;;21.60;27.90;;;;;;481818;246;1093;-59
2022/02/07 06:56:32;;;;;;;;;;;21.60;27.90;;;;;;481749;246;1219;-59
2022/02/07 06:58:33;;;;;;;;;;;21.60;27.90;;;;;;481754;246;1108;-59
2022/02/07 07:00:35;;;;;;;;;;;21.60;28.00;;;;;;481740;246;1066;-59
2022/02/07 07:02:36;;;;;;;;;;;21.50;28.00;;;;;;481752;246;1120;-59
2022/02/07 07:04:37;;;;;;;;;;;21.50;28.00;;;;;;481796;246;1067;-59
2022/02/07 07:06:40;;;;;;;;;;;21.50;28.00;;;;;;481776;246;1157;-59
2022/02/07 07:08:44;;;;;;;;;;;21.60;27.90;;;;;;481806;247;1562;-59
2022/02/07 07:10:43;;;;;;;;;;;21.50;27.90;;;;;;481556;247;2248;-60
2022/02/07 07:12:44;;;;;;;;;;;21.50;27.90;;;;;;481690;246;2202;-59
2022/02/07 07:14:47;;;;;;;;;;;21.50;27.80;;;;;;481591;247;2361;-59
2022/02/07 07:16:51;;;;;;;;;;;21.60;27.80;;;;;;481563;247;2057;-59
2022/02/07 07:18:53;;;;;;;;;;;21.50;27.80;;;;;;481725;246;1107;-60
2022/02/07 07:20:54;;;;;;;;;;;21.50;27.80;;;;;;481763;246;1116;-60
2022/02/07 07:22:58;;;;;;;;;;;21.40;27.80;;;;;;481757;246;1313;-59
2022/02/07 07:24:56;;;;;;;;;;;21.40;27.80;;;;;;481465;247;2159;-59
2022/02/07 07:26:58;;;;;;;;;;;21.50;27.80;;;;;;481579;246;1128;-59
2022/02/07 07:29:03;;;;;;;;;;;21.40;27.80;;;;;;481497;246;1459;-59
2022/02/07 07:31:02;;;;;;;;;;;21.50;27.80;;;;;;481178;246;1415;-59
2022/02/07 07:33:06;;;;;;;;;;;21.50;27.70;;;;;;481457;247;2149;-59
2022/02/07 07:35:03;;;;;;;;;;;21.50;27.70;;;;;;481364;247;1439;-59
2022/02/07 07:37:05;;;;;;;;;;;21.50;27.60;;;;;;481479;246;1195;-60
2022/02/07 07:39:06;;;;;;;;;;;21.50;27.60;;;;;;481409;246;1160;-59
2022/02/07 07:41:07;;;;;;;;;;;21.60;27.70;;;;;;481439;246;1174;-59
2022/02/07 07:43:10;;;;;;;;;;;21.60;27.60;;;;;;481667;246;1085;-59
2022/02/07 07:45:11;;;;;;;;;;;21.60;27.60;;;;;;481294;246;1243;-59
2022/02/07 07:47:16;;;;;;;;;;;21.60;27.60;;;;;;481203;246;1416;-60
2022/02/07 07:49:17;;;;;;;;;;;21.50;27.60;;;;;;480950;247;2238;-59
2022/02/07 07:51:25;;;;;;;;;;;21.60;27.60;;;;;;481230;247;2142;-59
2022/02/07 07:53:26;;;;;;;;;;;21.50;27.60;;;;;;480778;247;2180;-58
2022/02/07 07:55:28;;;;;;;;;;;21.50;27.60;;;;;;480874;247;2182;-59
2022/02/07 08:02:24;;;;;;;;;;;21.50;27.60;;;;;;474986;246;1218;-59
2022/02/07 08:04:26;;;;;;;;;;;21.50;27.60;;;;;;480058;247;1398;-59
2022/02/07 08:06:25;;;;;;;;;;;21.60;27.60;;;;;;482247;246;1413;-60
2022/02/07 08:08:28;;;;;;;;;;;21.50;27.50;;;;;;479655;248;1573;-60
2022/02/07 08:10:43;;;;;;;;;;;21.60;27.50;;;;;;479773;247;1813;-58
2022/02/07 08:12:34;;;;;;;;;;;21.60;27.50;;;;;;481740;246;2356;-58
2022/02/07 08:14:35;;;;;;;;;;;21.50;27.50;;;;;;480707;247;2106;-59
2022/02/07 08:16:35;;;;;;;;;;;21.60;27.50;;;;;;480197;247;1728;-59
2022/02/07 08:18:37;;;;;;;;;;;21.60;27.50;;;;;;482817;246;1179;-59
2022/02/07 08:20:38;;;;;;;;;;;21.60;27.50;;;;;;479852;247;1357;-59
2022/02/07 08:22:39;;;;;;;;;;;21.50;27.50;;;;;;480523;247;1135;-59
2022/02/07 08:24:41;;;;;;;;;;;21.50;27.50;;;;;;482683;246;1071;-59
2022/02/07 08:26:42;;;;;;;;;;;21.50;27.50;;;;;;479841;247;1499;-59
2022/02/07 08:28:43;;;;;;;;;;;21.50;27.40;;;;;;480173;247;1128;-59
2022/02/07 08:30:45;;;;;;;;;;;21.50;27.40;;;;;;482558;246;1299;-59
2022/02/07 08:32:46;;;;;;;;;;;21.50;27.40;;;;;;479888;247;2197;-59
2022/02/07 08:34:47;;;;;;;;;;;21.50;27.40;;;;;;480469;247;1232;-59
2022/02/07 08:36:49;;;;;;;;;;;21.40;27.50;;;;;;482795;246;1331;-59
2022/02/07 08:38:50;;;;;;;;;;;21.50;27.50;;;;;;480384;247;1004;-60
2022/02/07 08:40:51;;;;;;;;;;;21.40;27.60;;;;;;480773;247;1408;-59
2022/02/07 08:42:53;;;;;;;;;;;21.40;27.50;;;;;;482905;246;1028;-60
2022/02/07 08:44:54;;;;;;;;;;;21.40;27.40;;;;;;479931;247;1004;-59
2022/02/07 08:46:55;;;;;;;;;;;21.40;27.50;;;;;;480213;247;1466;-59
2022/02/07 08:48:58;;;;;;;;;;;21.40;27.50;;;;;;482555;246;1173;-59
2022/02/07 08:50:58;;;;;;;;;;;21.40;27.60;;;;;;480575;247;2265;-58
2022/02/07 08:53:01;;;;;;;;;;;21.40;27.60;;;;;;480448;247;2209;-59
2022/02/07 08:55:02;;;;;;;;;;;21.40;27.50;;;;;;482575;246;1454;-59
2022/02/07 08:57:13;;;;;;;;;;;21.40;27.50;;;;;;479749;247;1916;-59
2022/02/07 08:59:04;;;;;;;;;;;21.40;27.60;;;;;;479595;247;2198;-59
2022/02/07 09:01:14;;;;;;;;;;;21.40;27.50;;;;;;482616;246;1134;-58
2022/02/07 09:03:23;;;;;;;;;;;21.30;27.60;;;;;;479853;248;1285;-59
2022/02/07 09:05:35;;;;;;;;;;;21.40;27.60;;;;;;479898;247;1764;-59
2022/02/07 09:07:30;;;;;;;;;;;21.30;27.70;;;;;;481998;246;2178;-59
2022/02/07 09:09:25;;;;;;;;;;;21.30;27.80;;;;;;479573;248;2224;-59
2022/02/07 09:11:26;;;;;;;;;;;21.30;27.60;;;;;;480386;247;1277;-59
2022/02/07 09:13:30;;;;;;;;;;;21.30;27.70;;;;;;483049;246;2200;-59
2022/02/07 09:15:32;;;;;;;;;;;21.20;27.80;;;;;;479571;248;1889;-59
2022/02/07 09:17:31;;;;;;;;;;;21.30;27.80;;;;;;479547;247;2200;-59
2022/02/07 09:19:32;;;;;;;;;;;21.30;27.70;;;;;;481575;246;1214;-59
2022/02/07 09:21:34;;;;;;;;;;;21.40;27.70;;;;;;481587;246;1223;-59
2022/02/07 09:23:35;;;;;;;;;;;21.00;28.10;;;;;;481523;246;1257;-59
2022/02/07 09:25:36;;;;;;;;;;;21.20;28.00;;;;;;481450;246;1237;-59
2022/02/07 09:27:38;;;;;;;;;;;21.10;28.10;;;;;;481692;246;1143;-60
2022/02/07 09:29:40;;;;;;;;;;;21.10;28.10;;;;;;481628;246;1115;-58
2022/02/07 09:31:41;;;;;;;;;;;21.10;28.10;;;;;;481922;246;1494;-59
2022/02/07 09:33:44;;;;;;;;;;;21.10;28.00;;;;;;481757;246;2196;-60
2022/02/07 09:35:43;;;;;;;;;;;21.10;28.10;;;;;;481683;246;1705;-59
2022/02/07 09:37:45;;;;;;;;;;;21.10;28.10;;;;;;481667;246;1422;-58
2022/02/07 09:39:46;;;;;;;;;;;21.10;28.10;;;;;;481694;246;1075;-59
2022/02/07 09:41:51;;;;;;;;;;;21.10;28.00;;;;;;481624;246;1139;-59
2022/02/07 09:43:49;;;;;;;;;;;21.10;28.00;;;;;;481496;247;1987;-58
2022/02/07 09:45:51;;;;;;;;;;;21.10;28.00;;;;;;481736;246;1068;-59
2022/02/07 09:47:51;;;;;;;;;;;21.10;28.10;;;;;;481754;246;2299;-59
2022/02/07 09:49:52;;;;;;;;;;;21.10;28.00;;;;;;481753;246;1197;-59
2022/02/07 09:51:54;;;;;;;;;;;21.10;28.10;;;;;;481735;246;1373;-59
2022/02/07 09:53:55;;;;;;;;;;;21.20;27.90;;;;;;481860;246;2220;-59
2022/02/07 09:55:56;;;;;;;;;;;21.20;27.90;;;;;;481713;246;1218;-59
2022/02/07 09:57:58;;;;;;;;;;;21.30;27.80;;;;;;481928;244;1090;-59
2022/02/07 10:00:05;;;;;;;;;;;21.30;27.80;;;;;;481713;246;1049;-59
2022/02/07 10:02:03;;;;;;;;;;;21.40;27.60;;;;;;481176;247;1968;-59
2022/02/07 10:04:05;;;;;;;;;;;21.40;27.60;;;;;;481447;247;1378;-59
2022/02/07 10:06:10;;;;;;;;;;;21.50;27.60;;;;;;481394;247;1758;-59
2022/02/07 10:08:10;;;;;;;;;;;21.60;27.50;;;;;;481328;247;2120;-59
2022/02/07 10:10:21;;;;;;;;;;;21.80;27.30;;;;;;481526;247;1933;-59
2022/02/07 10:14:49;;;;;;;;;;;21.90;27.10;;;;;;480310;247;2180;-59
2022/02/07 10:16:54;;;;;;;;;;;22.10;27.10;;;;;;481273;247;1548;-59
2022/02/07 10:19:00;;;;;;;;;;;22.10;27.00;;;;;;481202;247;2142;-59
2022/02/07 10:35:36;;;;;;;;;;;22.80;26.40;;;;;;481287;246;2121;-59
2022/02/07 10:39:56;;;;;;;;;;;23.00;26.30;;;;;;481344;246;1074;-59
2022/02/07 10:44:20;;;;;;;;;;;23.00;26.30;;;;;;477474;247;1198;-59
2022/02/07 10:46:18;;;;;;;;;;;23.10;26.30;;;;;;481027;247;2326;-59
2022/02/07 10:48:18;;;;;;;;;;;23.10;26.20;;;;;;481289;247;2009;-59
2022/02/07 10:50:19;;;;;;;;;;;23.20;26.20;;;;;;481455;246;1151;-59
2022/02/07 10:52:20;;;;;;;;;;;23.30;26.10;;;;;;481409;246;1184;-60
2022/02/07 10:54:22;;;;;;;;;;;23.20;26.10;;;;;;481452;246;2126;-60
2022/02/07 10:56:23;;;;;;;;;;;23.20;26.10;;;;;;481378;246;1214;-59
2022/02/07 10:58:24;;;;;;;;;;;23.20;26.10;;;;;;481172;246;1171;-59
2022/02/07 11:00:29;;;;;;;;;;;23.10;26.20;;;;;;481110;246;1088;-59
2022/02/07 11:02:42;;;;;;;;;;;23.10;26.20;;;;;;480840;247;2387;-59
2022/02/07 11:04:43;;;;;;;;;;;23.10;26.30;;;;;;480973;247;2137;-59
2022/02/07 11:06:41;;;;;;;;;;;23.20;26.30;;;;;;480945;247;2433;-59
2022/02/07 11:08:49;;;;;;;;;;;23.20;26.20;;;;;;481553;246;1166;-59
2022/02/07 11:11:07;;;;;;;;;;;23.20;26.30;;;;;;481380;247;2165;-59
2022/02/07 11:15:31;;;;;;;;;;;23.20;26.20;;;;;;477396;247;2186;-59
2022/02/07 11:17:39;;;;;;;;;;;23.20;26.30;;;;;;481036;247;1863;-59
2022/02/07 11:19:49;;;;;;;;;;;23.20;26.20;;;;;;480869;247;2232;-59
2022/02/07 11:21:49;;;;;;;;;;;23.30;26.20;;;;;;480942;247;1324;-59
2022/02/07 11:23:52;;;;;;;;;;;23.40;26.10;;;;;;481172;247;1841;-59
2022/02/07 11:25:55;;;;;;;;;;;23.40;26.20;;;;;;481090;247;2369;-59
2022/02/07 11:27:53;;;;;;;;;;;23.40;26.20;;;;;;481452;247;2098;-60
2022/02/07 11:29:53;;;;;;;;;;;23.40;26.20;;;;;;481254;247;2119;-59
2022/02/07 11:31:54;;;;;;;;;;;23.40;26.20;;;;;;481235;246;1385;-59
2022/02/07 11:34:01;;;;;;;;;;;23.30;26.20;;;;;;481386;246;2181;-59
2022/02/07 11:35:57;;;;;;;;;;;23.40;26.10;;;;;;481048;247;2087;-59
2022/02/07 11:37:58;;;;;;;;;;;23.40;26.10;;;;;;481473;246;1028;-60
2022/02/07 11:39:59;;;;;;;;;;;23.40;26.20;;;;;;481205;246;1065;-59
2022/02/07 11:42:01;;;;;;;;;;;23.40;26.10;;;;;;481157;246;1123;-59
2022/02/07 11:44:02;;;;;;;;;;;23.30;26.20;;;;;;481286;246;1036;-59
2022/02/07 11:46:05;;;;;;;;;;;23.40;26.10;;;;;;481291;246;1319;-60
2022/02/07 11:48:05;;;;;;;;;;;23.40;26.10;;;;;;481585;246;2075;-59
2022/02/07 11:50:08;;;;;;;;;;;23.30;26.20;;;;;;481351;246;1297;-59
2022/02/07 11:52:07;;;;;;;;;;;23.30;26.20;;;;;;481286;246;1208;-59
2022/02/07 11:54:09;;;;;;;;;;;23.30;26.20;;;;;;481325;246;2188;-60
2022/02/07 11:56:10;;;;;;;;;;;23.30;26.30;;;;;;481322;246;2290;-59
2022/02/07 11:58:19;;;;;;;;;;;23.20;26.20;;;;;;481510;246;1083;-60
2022/02/07 12:00:13;;;;;;;;;;;23.20;26.20;;;;;;481081;247;2132;-59
2022/02/07 12:02:18;;;;;;;;;;;23.30;26.20;;;;;;481276;246;1333;-59
2022/02/07 12:04:17;;;;;;;;;;;23.30;26.20;;;;;;480969;247;2179;-59
2022/02/07 12:06:18;;;;;;;;;;;23.30;26.20;;;;;;481230;246;1318;-59
2022/02/07 12:08:19;;;;;;;;;;;23.40;26.10;;;;;;481292;246;1390;-59
2022/02/07 12:10:35;;;;;;;;;;;23.30;26.20;;;;;;481213;246;1167;-60
2022/02/07 12:12:29;;;;;;;;;;;23.30;26.10;;;;;;480923;247;2259;-59
2022/02/07 12:14:30;;;;;;;;;;;23.40;26.10;;;;;;481388;246;2188;-59
2022/02/07 12:16:33;;;;;;;;;;;23.40;26.10;;;;;;481226;246;1127;-60
2022/02/07 12:18:33;;;;;;;;;;;23.50;26.00;;;;;;481268;247;1326;-59
2022/02/07 12:20:34;;;;;;;;;;;23.50;26.00;;;;;;481344;246;1229;-59
2022/02/07 12:22:35;;;;;;;;;;;23.70;25.90;;;;;;481251;246;1094;-60
2022/02/07 12:24:37;;;;;;;;;;;23.70;25.80;;;;;;481119;246;1326;-59
2022/02/07 12:26:40;;;;;;;;;;;23.80;25.90;;;;;;481037;246;1331;-59
2022/02/07 12:28:43;;;;;;;;;;;23.70;25.90;;;;;;481122;247;2078;-59
2022/02/07 12:30:47;;;;;;;;;;;23.80;25.90;;;;;;481082;247;1617;-58
2022/02/07 12:32:45;;;;;;;;;;;23.70;26.00;;;;;;481005;247;2215;-60
2022/02/07 12:34:46;;;;;;;;;;;23.60;25.90;;;;;;481402;246;2133;-60
2022/02/07 12:36:52;;;;;;;;;;;23.70;26.00;;;;;;481383;246;1174;-59
2022/02/07 12:38:49;;;;;;;;;;;23.70;25.90;;;;;;481148;247;2301;-60
2022/02/07 12:40:50;;;;;;;;;;;23.90;25.70;;;;;;481381;246;987;-59
2022/02/07 12:42:52;;;;;;;;;;;24.10;25.40;;;;;;481443;246;1180;-59
2022/02/07 12:44:54;;;;;;;;;;;24.30;25.30;;;;;;481375;246;1132;-59
2022/02/07 12:46:56;;;;;;;;;;;24.20;25.40;;;;;;481170;247;2300;-59
2022/02/07 12:48:58;;;;;;;;;;;24.30;25.40;;;;;;481153;246;2359;-59
2022/02/07 12:50:57;;;;;;;;;;;24.20;25.40;;;;;;481107;247;2262;-59
2022/02/07 12:52:59;;;;;;;;;;;24.20;25.40;;;;;;481093;246;1184;-59
2022/02/07 12:55:00;;;;;;;;;;;24.20;25.40;;;;;;481048;243;2192;-58
2022/02/07 12:57:02;;;;;;;;;;;24.10;25.50;;;;;;480991;246;1117;-59
2022/02/07 12:59:03;;;;;;;;;;;24.10;25.50;;;;;;481377;246;2500;-60
2022/02/07 13:01:04;;;;;;;;;;;24.00;25.50;;;;;;481322;246;1162;-59
2022/02/07 13:03:05;;;;;;;;;;;24.10;25.50;;;;;;481245;246;1473;-59
2022/02/07 13:05:07;;;;;;;;;;;24.00;25.50;;;;;;481374;246;1120;-60
2022/02/07 13:07:10;;;;;;;;;;;23.90;25.70;;;;;;481383;246;1178;-59
2022/02/07 13:09:09;;;;;;;;;;;23.90;25.70;;;;;;480980;247;1978;-60
2022/02/07 13:11:16;;;;;;;;;;;24.00;25.50;;;;;;481128;246;1333;-60
2022/02/07 13:13:29;;;;;;;;;;;24.00;25.60;;;;;;480859;247;2349;-59
2022/02/07 13:15:30;;;;;;;;;;;24.00;25.50;;;;;;481217;247;2105;-60
2022/02/07 13:17:31;;;;;;;;;;;24.00;25.50;;;;;;481328;247;2422;-61
2022/02/07 13:19:31;;;;;;;;;;;24.10;25.40;;;;;;481054;247;1870;-61
2022/02/07 13:21:32;;;;;;;;;;;24.00;25.60;;;;;;480937;246;1326;-61
2022/02/07 13:23:34;;;;;;;;;;;24.10;25.50;;;;;;481194;246;1104;-61
2022/02/07 13:25:35;;;;;;;;;;;24.30;25.40;;;;;;481085;246;1127;-61
2022/02/07 13:27:36;;;;;;;;;;;24.40;25.30;;;;;;481283;246;1111;-61
2022/02/07 13:29:42;;;;;;;;;;;24.60;25.10;;;;;;481153;246;1050;-61
2022/02/07 13:31:39;;;;;;;;;;;24.50;25.20;;;;;;480996;247;2262;-61
2022/02/07 13:33:41;;;;;;;;;;;24.60;25.10;;;;;;481245;246;1120;-61